sensor_id;sensor_type;location;lat;lon;timestamp;P1;durP1;ratioP1;P2;durP2;ratioP2
44270;SDS011;29963;44.594;11.368;2022-12-29T00:02:11;91.63;;;55.78;;
44270;SDS011;29963;44.594;11.368;2022-12-29T00:04:38;93.28;;;56.47;;
44270;SDS011;29963;44.594;11.368;2022-12-29T00:07:03;91.65;;;54.83;;
44270;SDS011;29963;44.594;11.368;2022-12-29T00:09:30;89.50;;;53.75;;
44270;SDS011;29963;44.594;11.368;2022-12-29T00:11:56;82.47;;;52.30;;
44270;SDS011;29963;44.594;11.368;2022-12-29T00:14:22;85.03;;;53.28;;
44270;SDS011;29963;44.594;11.368;2022-12-29T00:17:06;84.50;;;51.85;;
44270;SDS011;29963;44.594;11.368;2022-12-29T00:19:32;82.78;;;51.70;;
44270;SDS011;29963;44.594;11.368;2022-12-29T00:22:16;81.63;;;52.00;;
44270;SDS011;29963;44.594;11.368;2022-12-29T00:25:01;82.47;;;52.78;;
44270;SDS011;29963;44.594;11.368;2022-12-29T00:27:45;76.88;;;50.78;;
44270;SDS011;29963;44.594;11.368;2022-12-29T00:30:29;84.32;;;51.10;;
44270;SDS011;29963;44.594;11.368;2022-12-29T00:33:17;84.63;;;50.15;;
44270;SDS011;29963;44.594;11.368;2022-12-29T00:39:04;82.68;;;53.22;;
44270;SDS011;29963;44.594;11.368;2022-12-29T00:41:55;82.70;;;51.97;;
44270;SDS011;29963;44.594;11.368;2022-12-29T00:44:39;88.32;;;52.92;;
44270;SDS011;29963;44.594;11.368;2022-12-29T00:47:04;85.20;;;53.40;;
44270;SDS011;29963;44.594;11.368;2022-12-29T00:49:30;91.45;;;54.28;;
44270;SDS011;29963;44.594;11.368;2022-12-29T00:52:03;83.90;;;50.83;;
44270;SDS011;29963;44.594;11.368;2022-12-29T00:54:32;86.53;;;51.50;;
44270;SDS011;29963;44.594;11.368;2022-12-29T00:56:59;93.40;;;53.95;;
44270;SDS011;29963;44.594;11.368;2022-12-29T00:59:25;93.40;;;54.35;;
44270;SDS011;29963;44.594;11.368;2022-12-29T01:01:52;80.18;;;52.35;;
44270;SDS011;29963;44.594;11.368;2022-12-29T01:04:22;85.10;;;50.63;;
44270;SDS011;29963;44.594;11.368;2022-12-29T01:06:49;82.53;;;50.20;;
44270;SDS011;29963;44.594;11.368;2022-12-29T01:09:15;87.75;;;54.00;;
44270;SDS011;29963;44.594;11.368;2022-12-29T01:12:00;79.72;;;50.45;;
44270;SDS011;29963;44.594;11.368;2022-12-29T01:14:27;90.18;;;54.47;;
44270;SDS011;29963;44.594;11.368;2022-12-29T01:16:52;87.55;;;55.85;;
44270;SDS011;29963;44.594;11.368;2022-12-29T01:19:19;92.45;;;54.90;;
44270;SDS011;29963;44.594;11.368;2022-12-29T01:21:45;85.43;;;52.75;;
44270;SDS011;29963;44.594;11.368;2022-12-29T01:24:12;89.28;;;52.78;;
44270;SDS011;29963;44.594;11.368;2022-12-29T01:26:39;80.07;;;50.03;;
44270;SDS011;29963;44.594;11.368;2022-12-29T01:29:04;91.15;;;51.47;;
44270;SDS011;29963;44.594;11.368;2022-12-29T01:31:30;74.40;;;48.67;;
44270;SDS011;29963;44.594;11.368;2022-12-29T01:33:56;90.10;;;54.35;;
44270;SDS011;29963;44.594;11.368;2022-12-29T01:36:21;89.65;;;52.38;;
44270;SDS011;29963;44.594;11.368;2022-12-29T01:38:48;83.93;;;52.05;;
44270;SDS011;29963;44.594;11.368;2022-12-29T01:41:14;87.60;;;52.45;;
44270;SDS011;29963;44.594;11.368;2022-12-29T01:43:42;84.68;;;53.58;;
44270;SDS011;29963;44.594;11.368;2022-12-29T01:49:13;84.80;;;51.38;;
44270;SDS011;29963;44.594;11.368;2022-12-29T01:51:55;85.60;;;50.90;;
44270;SDS011;29963;44.594;11.368;2022-12-29T01:54:28;90.93;;;52.67;;
44270;SDS011;29963;44.594;11.368;2022-12-29T01:56:59;86.55;;;53.40;;
44270;SDS011;29963;44.594;11.368;2022-12-29T01:59:30;83.97;;;52.28;;
44270;SDS011;29963;44.594;11.368;2022-12-29T02:01:59;88.78;;;52.63;;
44270;SDS011;29963;44.594;11.368;2022-12-29T02:04:26;82.97;;;50.30;;
44270;SDS011;29963;44.594;11.368;2022-12-29T02:06:57;82.28;;;53.97;;
44270;SDS011;29963;44.594;11.368;2022-12-29T02:09:33;87.10;;;52.53;;
44270;SDS011;29963;44.594;11.368;2022-12-29T02:12:02;85.53;;;52.97;;
44270;SDS011;29963;44.594;11.368;2022-12-29T02:14:28;81.63;;;52.05;;
44270;SDS011;29963;44.594;11.368;2022-12-29T02:22:34;84.45;;;50.60;;
44270;SDS011;29963;44.594;11.368;2022-12-29T02:30:42;78.97;;;50.33;;
44270;SDS011;29963;44.594;11.368;2022-12-29T02:38:23;84.05;;;51.03;;
44270;SDS011;29963;44.594;11.368;2022-12-29T02:49:05;83.97;;;51.97;;
44270;SDS011;29963;44.594;11.368;2022-12-29T02:54:26;78.85;;;50.65;;
44270;SDS011;29963;44.594;11.368;2022-12-29T02:57:49;85.10;;;50.17;;
44270;SDS011;29963;44.594;11.368;2022-12-29T03:00:03;72.13;;;46.85;;
44270;SDS011;29963;44.594;11.368;2022-12-29T03:05:19;83.20;;;52.03;;
44270;SDS011;29963;44.594;11.368;2022-12-29T03:16:02;74.88;;;46.20;;
44270;SDS011;29963;44.594;11.368;2022-12-29T03:24:22;79.32;;;51.15;;
44270;SDS011;29963;44.594;11.368;2022-12-29T03:26:53;81.82;;;51.80;;
44270;SDS011;29963;44.594;11.368;2022-12-29T03:29:22;75.00;;;48.22;;
44270;SDS011;29963;44.594;11.368;2022-12-29T03:31:49;82.53;;;50.25;;
44270;SDS011;29963;44.594;11.368;2022-12-29T03:34:17;77.90;;;49.20;;
44270;SDS011;29963;44.594;11.368;2022-12-29T03:36:59;82.32;;;50.67;;
44270;SDS011;29963;44.594;11.368;2022-12-29T03:39:29;78.40;;;47.92;;
44270;SDS011;29963;44.594;11.368;2022-12-29T03:41:59;75.65;;;48.25;;
44270;SDS011;29963;44.594;11.368;2022-12-29T03:44:36;79.53;;;48.90;;
44270;SDS011;29963;44.594;11.368;2022-12-29T03:47:07;79.55;;;49.65;;
44270;SDS011;29963;44.594;11.368;2022-12-29T03:49:35;75.22;;;47.92;;
44270;SDS011;29963;44.594;11.368;2022-12-29T03:52:00;77.22;;;50.72;;
44270;SDS011;29963;44.594;11.368;2022-12-29T03:54:26;77.03;;;48.65;;
44270;SDS011;29963;44.594;11.368;2022-12-29T03:56:52;79.82;;;50.92;;
44270;SDS011;29963;44.594;11.368;2022-12-29T03:59:17;81.72;;;50.35;;
44270;SDS011;29963;44.594;11.368;2022-12-29T04:01:43;84.57;;;51.05;;
44270;SDS011;29963;44.594;11.368;2022-12-29T04:04:09;80.80;;;50.67;;
44270;SDS011;29963;44.594;11.368;2022-12-29T04:06:34;83.78;;;50.30;;
44270;SDS011;29963;44.594;11.368;2022-12-29T04:09:00;79.90;;;51.58;;
44270;SDS011;29963;44.594;11.368;2022-12-29T04:11:26;74.38;;;49.28;;
44270;SDS011;29963;44.594;11.368;2022-12-29T04:13:51;85.63;;;50.63;;
44270;SDS011;29963;44.594;11.368;2022-12-29T04:16:17;82.00;;;50.00;;
44270;SDS011;29963;44.594;11.368;2022-12-29T04:18:43;82.40;;;51.53;;
44270;SDS011;29963;44.594;11.368;2022-12-29T04:21:08;88.28;;;53.05;;
44270;SDS011;29963;44.594;11.368;2022-12-29T04:23:36;80.57;;;51.03;;
44270;SDS011;29963;44.594;11.368;2022-12-29T04:26:03;85.25;;;53.40;;
44270;SDS011;29963;44.594;11.368;2022-12-29T04:28:32;82.28;;;50.20;;
44270;SDS011;29963;44.594;11.368;2022-12-29T04:30:58;80.28;;;49.63;;
44270;SDS011;29963;44.594;11.368;2022-12-29T04:33:24;79.65;;;49.92;;
44270;SDS011;29963;44.594;11.368;2022-12-29T04:35:50;84.78;;;49.85;;
44270;SDS011;29963;44.594;11.368;2022-12-29T04:38:20;77.57;;;49.70;;
44270;SDS011;29963;44.594;11.368;2022-12-29T04:40:48;82.45;;;50.30;;
44270;SDS011;29963;44.594;11.368;2022-12-29T04:43:14;89.15;;;55.25;;
44270;SDS011;29963;44.594;11.368;2022-12-29T04:45:46;80.28;;;50.25;;
44270;SDS011;29963;44.594;11.368;2022-12-29T04:48:13;76.93;;;50.72;;
44270;SDS011;29963;44.594;11.368;2022-12-29T04:50:39;86.82;;;54.40;;
44270;SDS011;29963;44.594;11.368;2022-12-29T04:53:06;88.43;;;56.63;;
44270;SDS011;29963;44.594;11.368;2022-12-29T04:55:32;90.00;;;53.80;;
44270;SDS011;29963;44.594;11.368;2022-12-29T04:57:58;93.78;;;53.92;;
44270;SDS011;29963;44.594;11.368;2022-12-29T05:00:24;83.22;;;54.10;;
44270;SDS011;29963;44.594;11.368;2022-12-29T05:02:53;89.57;;;54.38;;
44270;SDS011;29963;44.594;11.368;2022-12-29T05:05:18;84.70;;;54.42;;
44270;SDS011;29963;44.594;11.368;2022-12-29T05:07:44;88.30;;;55.67;;
44270;SDS011;29963;44.594;11.368;2022-12-29T05:10:10;89.55;;;56.40;;
44270;SDS011;29963;44.594;11.368;2022-12-29T05:12:36;87.32;;;52.60;;
44270;SDS011;29963;44.594;11.368;2022-12-29T05:15:03;87.53;;;55.22;;
44270;SDS011;29963;44.594;11.368;2022-12-29T05:17:30;91.10;;;56.47;;
44270;SDS011;29963;44.594;11.368;2022-12-29T05:19:56;93.82;;;54.88;;
44270;SDS011;29963;44.594;11.368;2022-12-29T05:22:21;85.07;;;53.63;;
44270;SDS011;29963;44.594;11.368;2022-12-29T05:24:47;85.93;;;54.72;;
44270;SDS011;29963;44.594;11.368;2022-12-29T05:27:13;88.15;;;54.00;;
44270;SDS011;29963;44.594;11.368;2022-12-29T05:29:39;81.57;;;53.60;;
44270;SDS011;29963;44.594;11.368;2022-12-29T05:32:05;85.10;;;54.47;;
44270;SDS011;29963;44.594;11.368;2022-12-29T05:34:30;85.50;;;54.60;;
44270;SDS011;29963;44.594;11.368;2022-12-29T05:36:56;92.45;;;55.92;;
44270;SDS011;29963;44.594;11.368;2022-12-29T05:39:22;76.95;;;51.88;;
44270;SDS011;29963;44.594;11.368;2022-12-29T05:41:50;91.95;;;55.88;;
44270;SDS011;29963;44.594;11.368;2022-12-29T05:44:16;90.60;;;55.17;;
44270;SDS011;29963;44.594;11.368;2022-12-29T05:46:41;86.75;;;52.72;;
44270;SDS011;29963;44.594;11.368;2022-12-29T05:49:07;90.05;;;54.25;;
44270;SDS011;29963;44.594;11.368;2022-12-29T05:51:33;86.72;;;54.30;;
44270;SDS011;29963;44.594;11.368;2022-12-29T05:53:58;89.57;;;54.30;;
44270;SDS011;29963;44.594;11.368;2022-12-29T05:56:24;90.13;;;55.38;;
44270;SDS011;29963;44.594;11.368;2022-12-29T05:58:50;83.97;;;55.35;;
44270;SDS011;29963;44.594;11.368;2022-12-29T06:01:15;91.45;;;54.45;;
44270;SDS011;29963;44.594;11.368;2022-12-29T06:03:41;85.93;;;55.20;;
44270;SDS011;29963;44.594;11.368;2022-12-29T06:06:07;88.38;;;55.80;;
44270;SDS011;29963;44.594;11.368;2022-12-29T06:08:34;88.50;;;52.83;;
44270;SDS011;29963;44.594;11.368;2022-12-29T06:11:02;87.10;;;54.17;;
44270;SDS011;29963;44.594;11.368;2022-12-29T06:13:28;95.43;;;58.45;;
44270;SDS011;29963;44.594;11.368;2022-12-29T06:15:53;93.88;;;54.28;;
44270;SDS011;29963;44.594;11.368;2022-12-29T06:18:19;96.28;;;58.17;;
44270;SDS011;29963;44.594;11.368;2022-12-29T06:20:45;97.07;;;56.53;;
44270;SDS011;29963;44.594;11.368;2022-12-29T06:23:10;92.88;;;58.45;;
44270;SDS011;29963;44.594;11.368;2022-12-29T06:25:38;94.25;;;57.70;;
44270;SDS011;29963;44.594;11.368;2022-12-29T06:28:04;94.78;;;59.38;;
44270;SDS011;29963;44.594;11.368;2022-12-29T06:30:30;89.78;;;55.08;;
44270;SDS011;29963;44.594;11.368;2022-12-29T06:32:57;87.93;;;55.70;;
44270;SDS011;29963;44.594;11.368;2022-12-29T06:35:23;95.25;;;56.78;;
44270;SDS011;29963;44.594;11.368;2022-12-29T06:37:49;93.13;;;58.45;;
44270;SDS011;29963;44.594;11.368;2022-12-29T06:40:15;90.95;;;56.72;;
44270;SDS011;29963;44.594;11.368;2022-12-29T06:42:40;92.03;;;57.53;;
44270;SDS011;29963;44.594;11.368;2022-12-29T06:45:06;95.68;;;58.38;;
44270;SDS011;29963;44.594;11.368;2022-12-29T06:47:32;91.20;;;55.47;;
44270;SDS011;29963;44.594;11.368;2022-12-29T06:49:59;102.55;;;59.92;;
44270;SDS011;29963;44.594;11.368;2022-12-29T06:52:24;90.68;;;57.15;;
44270;SDS011;29963;44.594;11.368;2022-12-29T06:54:50;100.25;;;57.75;;
44270;SDS011;29963;44.594;11.368;2022-12-29T06:57:16;94.90;;;58.28;;
44270;SDS011;29963;44.594;11.368;2022-12-29T06:59:42;94.75;;;56.53;;
44270;SDS011;29963;44.594;11.368;2022-12-29T07:02:09;98.93;;;58.95;;
44270;SDS011;29963;44.594;11.368;2022-12-29T07:04:35;94.45;;;57.67;;
44270;SDS011;29963;44.594;11.368;2022-12-29T07:07:01;92.35;;;58.33;;
44270;SDS011;29963;44.594;11.368;2022-12-29T07:09:27;89.25;;;57.53;;
44270;SDS011;29963;44.594;11.368;2022-12-29T07:11:53;93.22;;;55.90;;
44270;SDS011;29963;44.594;11.368;2022-12-29T07:14:18;82.22;;;53.50;;
44270;SDS011;29963;44.594;11.368;2022-12-29T07:16:44;83.72;;;54.60;;
44270;SDS011;29963;44.594;11.368;2022-12-29T07:19:10;95.95;;;55.95;;
44270;SDS011;29963;44.594;11.368;2022-12-29T07:21:35;89.13;;;54.33;;
44270;SDS011;29963;44.594;11.368;2022-12-29T07:24:01;87.93;;;55.78;;
44270;SDS011;29963;44.594;11.368;2022-12-29T07:26:27;93.25;;;56.38;;
44270;SDS011;29963;44.594;11.368;2022-12-29T07:28:52;92.85;;;56.67;;
44270;SDS011;29963;44.594;11.368;2022-12-29T07:31:19;88.63;;;55.92;;
44270;SDS011;29963;44.594;11.368;2022-12-29T07:33:48;88.75;;;54.97;;
44270;SDS011;29963;44.594;11.368;2022-12-29T07:36:14;80.97;;;50.92;;
44270;SDS011;29963;44.594;11.368;2022-12-29T07:38:41;82.65;;;53.80;;
44270;SDS011;29963;44.594;11.368;2022-12-29T07:41:07;86.78;;;51.95;;
44270;SDS011;29963;44.594;11.368;2022-12-29T07:43:33;88.70;;;52.33;;
44270;SDS011;29963;44.594;11.368;2022-12-29T07:45:59;88.57;;;54.85;;
44270;SDS011;29963;44.594;11.368;2022-12-29T07:48:25;79.63;;;53.30;;
44270;SDS011;29963;44.594;11.368;2022-12-29T07:50:51;89.95;;;55.75;;
44270;SDS011;29963;44.594;11.368;2022-12-29T07:53:18;100.07;;;61.80;;
44270;SDS011;29963;44.594;11.368;2022-12-29T07:55:43;94.82;;;61.03;;
44270;SDS011;29963;44.594;11.368;2022-12-29T07:58:09;89.05;;;55.05;;
44270;SDS011;29963;44.594;11.368;2022-12-29T08:00:35;82.50;;;52.53;;
44270;SDS011;29963;44.594;11.368;2022-12-29T08:03:03;79.90;;;52.58;;
44270;SDS011;29963;44.594;11.368;2022-12-29T08:05:29;84.10;;;52.63;;
44270;SDS011;29963;44.594;11.368;2022-12-29T08:07:58;83.40;;;50.58;;
44270;SDS011;29963;44.594;11.368;2022-12-29T08:10:24;87.68;;;52.47;;
44270;SDS011;29963;44.594;11.368;2022-12-29T08:12:50;83.50;;;54.45;;
44270;SDS011;29963;44.594;11.368;2022-12-29T08:15:15;78.88;;;50.83;;
44270;SDS011;29963;44.594;11.368;2022-12-29T08:17:41;81.13;;;51.22;;
44270;SDS011;29963;44.594;11.368;2022-12-29T08:20:07;83.07;;;51.60;;
44270;SDS011;29963;44.594;11.368;2022-12-29T08:22:33;91.18;;;50.85;;
44270;SDS011;29963;44.594;11.368;2022-12-29T08:24:59;85.10;;;53.38;;
44270;SDS011;29963;44.594;11.368;2022-12-29T08:27:25;83.25;;;53.20;;
44270;SDS011;29963;44.594;11.368;2022-12-29T08:29:51;85.38;;;52.83;;
44270;SDS011;29963;44.594;11.368;2022-12-29T08:32:20;88.00;;;53.50;;
44270;SDS011;29963;44.594;11.368;2022-12-29T08:34:45;78.10;;;50.88;;
44270;SDS011;29963;44.594;11.368;2022-12-29T08:37:11;86.47;;;53.38;;
44270;SDS011;29963;44.594;11.368;2022-12-29T08:39:37;81.05;;;50.42;;
44270;SDS011;29963;44.594;11.368;2022-12-29T08:42:02;84.80;;;54.13;;
44270;SDS011;29963;44.594;11.368;2022-12-29T08:44:28;85.20;;;52.95;;
44270;SDS011;29963;44.594;11.368;2022-12-29T08:46:54;88.30;;;53.63;;
44270;SDS011;29963;44.594;11.368;2022-12-29T08:49:19;85.28;;;52.10;;
44270;SDS011;29963;44.594;11.368;2022-12-29T08:51:45;81.18;;;50.25;;
44270;SDS011;29963;44.594;11.368;2022-12-29T08:54:11;78.70;;;49.38;;
44270;SDS011;29963;44.594;11.368;2022-12-29T08:56:37;81.18;;;52.55;;
44270;SDS011;29963;44.594;11.368;2022-12-29T08:59:03;80.93;;;50.47;;
44270;SDS011;29963;44.594;11.368;2022-12-29T09:01:28;79.13;;;50.20;;
44270;SDS011;29963;44.594;11.368;2022-12-29T09:03:58;72.18;;;47.35;;
44270;SDS011;29963;44.594;11.368;2022-12-29T09:06:24;78.13;;;48.63;;
44270;SDS011;29963;44.594;11.368;2022-12-29T09:08:49;74.95;;;47.83;;
44270;SDS011;29963;44.594;11.368;2022-12-29T09:11:19;79.97;;;52.30;;
44270;SDS011;29963;44.594;11.368;2022-12-29T09:13:47;79.75;;;48.55;;
44270;SDS011;29963;44.594;11.368;2022-12-29T09:16:13;79.63;;;48.13;;
44270;SDS011;29963;44.594;11.368;2022-12-29T09:18:39;74.05;;;48.88;;
44270;SDS011;29963;44.594;11.368;2022-12-29T09:21:05;75.82;;;48.92;;
44270;SDS011;29963;44.594;11.368;2022-12-29T09:23:33;77.50;;;49.70;;
44270;SDS011;29963;44.594;11.368;2022-12-29T09:25:59;76.18;;;48.42;;
44270;SDS011;29963;44.594;11.368;2022-12-29T09:28:25;74.30;;;48.80;;
44270;SDS011;29963;44.594;11.368;2022-12-29T09:30:54;78.68;;;49.40;;
44270;SDS011;29963;44.594;11.368;2022-12-29T09:33:21;80.18;;;49.45;;
44270;SDS011;29963;44.594;11.368;2022-12-29T09:35:53;80.95;;;48.08;;
44270;SDS011;29963;44.594;11.368;2022-12-29T09:38:23;72.70;;;47.53;;
44270;SDS011;29963;44.594;11.368;2022-12-29T09:40:54;80.40;;;48.20;;
44270;SDS011;29963;44.594;11.368;2022-12-29T09:43:37;74.70;;;45.83;;
44270;SDS011;29963;44.594;11.368;2022-12-29T09:48:35;75.25;;;47.45;;
44270;SDS011;29963;44.594;11.368;2022-12-29T09:51:11;79.28;;;48.25;;
44270;SDS011;29963;44.594;11.368;2022-12-29T09:53:41;73.18;;;48.55;;
44270;SDS011;29963;44.594;11.368;2022-12-29T09:56:18;74.55;;;45.67;;
44270;SDS011;29963;44.594;11.368;2022-12-29T09:59:08;71.07;;;47.83;;
44270;SDS011;29963;44.594;11.368;2022-12-29T10:04:43;67.47;;;42.10;;
44270;SDS011;29963;44.594;11.368;2022-12-29T10:07:23;65.00;;;45.08;;
44270;SDS011;29963;44.594;11.368;2022-12-29T10:15:30;64.07;;;41.47;;
44270;SDS011;29963;44.594;11.368;2022-12-29T10:18:10;63.47;;;42.85;;
44270;SDS011;29963;44.594;11.368;2022-12-29T10:21:01;72.75;;;43.15;;
44270;SDS011;29963;44.594;11.368;2022-12-29T10:23:42;65.63;;;43.35;;
44270;SDS011;29963;44.594;11.368;2022-12-29T10:26:22;67.13;;;42.30;;
44270;SDS011;29963;44.594;11.368;2022-12-29T10:29:14;69.35;;;44.83;;
44270;SDS011;29963;44.594;11.368;2022-12-29T10:31:44;62.30;;;41.58;;
44270;SDS011;29963;44.594;11.368;2022-12-29T10:34:25;66.43;;;41.78;;
44270;SDS011;29963;44.594;11.368;2022-12-29T10:36:57;68.65;;;43.92;;
44270;SDS011;29963;44.594;11.368;2022-12-29T10:39:46;72.57;;;42.63;;
44270;SDS011;29963;44.594;11.368;2022-12-29T10:42:26;67.43;;;42.75;;
44270;SDS011;29963;44.594;11.368;2022-12-29T10:45:02;68.88;;;42.88;;
44270;SDS011;29963;44.594;11.368;2022-12-29T10:47:31;70.55;;;43.35;;
44270;SDS011;29963;44.594;11.368;2022-12-29T10:50:00;62.83;;;40.95;;
44270;SDS011;29963;44.594;11.368;2022-12-29T10:52:26;67.32;;;43.22;;
44270;SDS011;29963;44.594;11.368;2022-12-29T10:55:03;68.95;;;43.85;;
44270;SDS011;29963;44.594;11.368;2022-12-29T10:57:39;71.32;;;44.08;;
44270;SDS011;29963;44.594;11.368;2022-12-29T11:00:14;73.93;;;40.33;;
44270;SDS011;29963;44.594;11.368;2022-12-29T11:08:09;66.45;;;41.00;;
44270;SDS011;29963;44.594;11.368;2022-12-29T11:10:40;59.50;;;39.80;;
44270;SDS011;29963;44.594;11.368;2022-12-29T11:15:47;70.13;;;40.38;;
44270;SDS011;29963;44.594;11.368;2022-12-29T11:20:51;63.88;;;38.45;;
44270;SDS011;29963;44.594;11.368;2022-12-29T11:29:02;58.75;;;37.63;;
44270;SDS011;29963;44.594;11.368;2022-12-29T11:31:39;62.40;;;37.25;;
44270;SDS011;29963;44.594;11.368;2022-12-29T11:34:08;61.92;;;37.38;;
44270;SDS011;29963;44.594;11.368;2022-12-29T11:37:11;60.80;;;37.25;;
44270;SDS011;29963;44.594;11.368;2022-12-29T11:39:50;57.67;;;36.53;;
44270;SDS011;29963;44.594;11.368;2022-12-29T11:42:38;53.83;;;35.22;;
44270;SDS011;29963;44.594;11.368;2022-12-29T11:47:43;52.22;;;34.10;;
44270;SDS011;29963;44.594;11.368;2022-12-29T11:50:20;57.88;;;35.53;;
44270;SDS011;29963;44.594;11.368;2022-12-29T11:52:49;52.80;;;32.70;;
44270;SDS011;29963;44.594;11.368;2022-12-29T11:55:23;51.60;;;32.58;;
44270;SDS011;29963;44.594;11.368;2022-12-29T11:57:52;47.20;;;31.55;;
44270;SDS011;29963;44.594;11.368;2022-12-29T12:00:20;46.47;;;31.80;;
44270;SDS011;29963;44.594;11.368;2022-12-29T12:10:35;51.38;;;35.15;;
44270;SDS011;29963;44.594;11.368;2022-12-29T12:18:41;48.08;;;30.73;;
44270;SDS011;29963;44.594;11.368;2022-12-29T12:21:38;47.92;;;31.23;;
44270;SDS011;29963;44.594;11.368;2022-12-29T12:29:35;57.30;;;33.42;;
44270;SDS011;29963;44.594;11.368;2022-12-29T12:35:11;51.10;;;32.45;;
44270;SDS011;29963;44.594;11.368;2022-12-29T13:16:00;44.15;;;31.40;;
44270;SDS011;29963;44.594;11.368;2022-12-29T13:24:47;50.55;;;32.83;;
44270;SDS011;29963;44.594;11.368;2022-12-29T13:37:49;40.20;;;28.00;;
44270;SDS011;29963;44.594;11.368;2022-12-29T13:40:38;43.45;;;28.60;;
44270;SDS011;29963;44.594;11.368;2022-12-29T13:43:09;50.50;;;30.88;;
44270;SDS011;29963;44.594;11.368;2022-12-29T13:45:37;49.60;;;32.08;;
44270;SDS011;29963;44.594;11.368;2022-12-29T13:48:14;52.15;;;31.75;;
44270;SDS011;29963;44.594;11.368;2022-12-29T13:50:54;46.53;;;29.85;;
44270;SDS011;29963;44.594;11.368;2022-12-29T13:53:37;47.55;;;30.17;;
44270;SDS011;29963;44.594;11.368;2022-12-29T14:05:02;50.10;;;30.98;;
44270;SDS011;29963;44.594;11.368;2022-12-29T14:07:35;49.10;;;32.35;;
44270;SDS011;29963;44.594;11.368;2022-12-29T14:10:02;44.95;;;30.13;;
44270;SDS011;29963;44.594;11.368;2022-12-29T14:12:39;41.03;;;28.67;;
44270;SDS011;29963;44.594;11.368;2022-12-29T14:17:35;43.30;;;29.35;;
44270;SDS011;29963;44.594;11.368;2022-12-29T14:20:02;41.72;;;28.02;;
44270;SDS011;29963;44.594;11.368;2022-12-29T14:22:31;42.28;;;28.10;;
44270;SDS011;29963;44.594;11.368;2022-12-29T14:24:56;44.15;;;29.92;;
44270;SDS011;29963;44.594;11.368;2022-12-29T14:30:29;47.10;;;29.90;;
44270;SDS011;29963;44.594;11.368;2022-12-29T14:33:14;46.08;;;31.10;;
44270;SDS011;29963;44.594;11.368;2022-12-29T14:35:44;45.78;;;28.88;;
44270;SDS011;29963;44.594;11.368;2022-12-29T14:38:17;43.40;;;28.85;;
44270;SDS011;29963;44.594;11.368;2022-12-29T14:40:48;48.53;;;32.03;;
44270;SDS011;29963;44.594;11.368;2022-12-29T14:43:18;44.13;;;28.85;;
44270;SDS011;29963;44.594;11.368;2022-12-29T14:45:51;40.33;;;28.52;;
44270;SDS011;29963;44.594;11.368;2022-12-29T14:48:35;38.88;;;27.50;;
44270;SDS011;29963;44.594;11.368;2022-12-29T14:51:17;38.15;;;25.83;;
44270;SDS011;29963;44.594;11.368;2022-12-29T14:56:11;39.92;;;27.25;;
44270;SDS011;29963;44.594;11.368;2022-12-29T14:58:54;42.63;;;27.55;;
44270;SDS011;29963;44.594;11.368;2022-12-29T15:03:58;40.28;;;27.50;;
44270;SDS011;29963;44.594;11.368;2022-12-29T15:06:29;44.45;;;31.70;;
44270;SDS011;29963;44.594;11.368;2022-12-29T15:09:04;51.28;;;34.90;;
44270;SDS011;29963;44.594;11.368;2022-12-29T15:20:14;45.03;;;32.70;;
44270;SDS011;29963;44.594;11.368;2022-12-29T15:22:54;43.90;;;30.20;;
44270;SDS011;29963;44.594;11.368;2022-12-29T15:25:23;40.60;;;28.77;;
44270;SDS011;29963;44.594;11.368;2022-12-29T15:27:51;43.67;;;29.83;;
44270;SDS011;29963;44.594;11.368;2022-12-29T15:30:18;43.90;;;27.80;;
44270;SDS011;29963;44.594;11.368;2022-12-29T15:32:45;39.95;;;28.30;;
44270;SDS011;29963;44.594;11.368;2022-12-29T15:35:21;45.15;;;29.75;;
44270;SDS011;29963;44.594;11.368;2022-12-29T15:37:49;37.45;;;27.23;;
44270;SDS011;29963;44.594;11.368;2022-12-29T15:40:30;46.00;;;29.98;;
44270;SDS011;29963;44.594;11.368;2022-12-29T15:43:05;40.05;;;29.42;;
44270;SDS011;29963;44.594;11.368;2022-12-29T15:45:48;40.88;;;26.98;;
44270;SDS011;29963;44.594;11.368;2022-12-29T15:48:19;47.15;;;29.55;;
44270;SDS011;29963;44.594;11.368;2022-12-29T15:50:48;42.33;;;30.02;;
44270;SDS011;29963;44.594;11.368;2022-12-29T15:53:18;44.25;;;29.55;;
44270;SDS011;29963;44.594;11.368;2022-12-29T15:55:50;40.15;;;28.10;;
44270;SDS011;29963;44.594;11.368;2022-12-29T15:58:18;40.67;;;27.75;;
44270;SDS011;29963;44.594;11.368;2022-12-29T16:00:50;41.90;;;28.20;;
44270;SDS011;29963;44.594;11.368;2022-12-29T16:03:18;41.15;;;28.23;;
44270;SDS011;29963;44.594;11.368;2022-12-29T16:05:52;45.08;;;29.40;;
44270;SDS011;29963;44.594;11.368;2022-12-29T16:08:34;41.33;;;29.02;;
44270;SDS011;29963;44.594;11.368;2022-12-29T16:13:54;36.70;;;28.08;;
44270;SDS011;29963;44.594;11.368;2022-12-29T16:16:35;39.42;;;27.70;;
44270;SDS011;29963;44.594;11.368;2022-12-29T16:19:09;43.03;;;29.73;;
44270;SDS011;29963;44.594;11.368;2022-12-29T16:21:36;45.33;;;30.95;;
44270;SDS011;29963;44.594;11.368;2022-12-29T16:24:05;45.08;;;30.08;;
44270;SDS011;29963;44.594;11.368;2022-12-29T16:26:48;46.67;;;31.15;;
44270;SDS011;29963;44.594;11.368;2022-12-29T16:29:15;44.25;;;30.63;;
44270;SDS011;29963;44.594;11.368;2022-12-29T16:34:28;42.80;;;31.40;;
44270;SDS011;29963;44.594;11.368;2022-12-29T16:37:03;40.92;;;28.98;;
44270;SDS011;29963;44.594;11.368;2022-12-29T16:39:47;43.97;;;28.77;;
44270;SDS011;29963;44.594;11.368;2022-12-29T16:45:09;46.17;;;29.58;;
44270;SDS011;29963;44.594;11.368;2022-12-29T16:48:09;48.80;;;30.77;;
44270;SDS011;29963;44.594;11.368;2022-12-29T16:50:43;49.38;;;33.08;;
44270;SDS011;29963;44.594;11.368;2022-12-29T16:53:18;47.97;;;31.80;;
44270;SDS011;29963;44.594;11.368;2022-12-29T16:55:55;42.13;;;28.50;;
44270;SDS011;29963;44.594;11.368;2022-12-29T16:58:23;47.97;;;31.73;;
44270;SDS011;29963;44.594;11.368;2022-12-29T17:00:52;45.97;;;30.05;;
44270;SDS011;29963;44.594;11.368;2022-12-29T17:03:20;41.72;;;29.90;;
44270;SDS011;29963;44.594;11.368;2022-12-29T17:05:47;47.85;;;30.92;;
44270;SDS011;29963;44.594;11.368;2022-12-29T17:08:19;41.42;;;29.13;;
44270;SDS011;29963;44.594;11.368;2022-12-29T17:10:51;47.42;;;30.63;;
44270;SDS011;29963;44.594;11.368;2022-12-29T17:13:38;46.60;;;31.40;;
44270;SDS011;29963;44.594;11.368;2022-12-29T17:16:05;48.85;;;31.58;;
44270;SDS011;29963;44.594;11.368;2022-12-29T17:18:32;51.17;;;33.65;;
44270;SDS011;29963;44.594;11.368;2022-12-29T17:20:59;47.95;;;32.40;;
44270;SDS011;29963;44.594;11.368;2022-12-29T17:23:25;47.03;;;31.25;;
44270;SDS011;29963;44.594;11.368;2022-12-29T17:25:50;49.55;;;33.38;;
44270;SDS011;29963;44.594;11.368;2022-12-29T17:28:22;47.97;;;32.38;;
44270;SDS011;29963;44.594;11.368;2022-12-29T17:30:51;47.80;;;32.90;;
44270;SDS011;29963;44.594;11.368;2022-12-29T17:33:19;47.03;;;32.17;;
44270;SDS011;29963;44.594;11.368;2022-12-29T17:35:45;47.25;;;31.88;;
44270;SDS011;29963;44.594;11.368;2022-12-29T17:40:42;50.42;;;33.67;;
44270;SDS011;29963;44.594;11.368;2022-12-29T17:43:08;54.30;;;32.22;;